createdAt,value
2018-09-21T00:02:01.521Z,17.00
2018-09-21T00:04:30.113Z,17.00
2018-09-21T00:06:58.654Z,17.00
2018-09-21T00:09:27.259Z,16.90
2018-09-21T00:11:55.830Z,16.90
2018-09-21T00:14:24.406Z,16.90
2018-09-21T00:16:53.076Z,16.90
2018-09-21T00:19:21.627Z,16.90
2018-09-21T00:21:50.247Z,16.80
2018-09-21T00:24:18.913Z,16.80
2018-09-21T00:26:47.438Z,16.80
2018-09-21T00:29:16.008Z,16.70
2018-09-21T00:31:44.624Z,16.70
2018-09-21T00:34:13.220Z,16.70
2018-09-21T00:36:42.168Z,16.60
2018-09-21T00:39:11.577Z,16.70
2018-09-21T00:41:40.483Z,16.70
2018-09-21T00:44:09.083Z,16.70
2018-09-21T00:46:38.957Z,16.70
2018-09-21T00:49:07.547Z,16.70
2018-09-21T00:51:36.136Z,16.70
2018-09-21T00:54:04.713Z,16.70
2018-09-21T00:56:33.303Z,16.70
2018-09-21T00:59:01.884Z,16.70
2018-09-21T01:01:30.448Z,16.70
2018-09-21T01:03:58.987Z,16.80
2018-09-21T01:06:27.607Z,16.80
2018-09-21T01:08:56.163Z,16.80
2018-09-21T01:11:24.714Z,16.80
2018-09-21T01:13:53.316Z,16.80
2018-09-21T01:16:21.906Z,16.80
2018-09-21T01:18:50.520Z,16.80
2018-09-21T01:21:19.146Z,16.80
2018-09-21T01:23:47.795Z,16.80
2018-09-21T01:26:16.409Z,16.80
2018-09-21T01:28:45.000Z,16.80
2018-09-21T01:31:13.581Z,16.80
2018-09-21T01:33:42.182Z,16.80
2018-09-21T01:36:10.812Z,16.80
2018-09-21T01:38:40.149Z,16.80
2018-09-21T01:41:08.733Z,16.80
2018-09-21T01:43:37.352Z,16.80
2018-09-21T01:46:06.266Z,16.80
2018-09-21T01:48:34.877Z,16.90
2018-09-21T01:51:03.495Z,16.90
2018-09-21T01:53:32.070Z,16.90
2018-09-21T01:56:00.651Z,16.90
2018-09-21T01:58:29.193Z,16.90
2018-09-21T02:00:57.788Z,16.90
2018-09-21T02:03:26.599Z,16.90
2018-09-21T02:05:55.194Z,16.90
2018-09-21T02:08:23.803Z,16.80
2018-09-21T02:10:52.524Z,16.80
2018-09-21T02:13:21.185Z,16.80
2018-09-21T02:15:49.770Z,16.70
2018-09-21T02:18:18.372Z,16.70
2018-09-21T02:20:46.928Z,16.70
2018-09-21T02:23:15.475Z,16.70
2018-09-21T02:25:44.312Z,16.60
2018-09-21T02:28:12.875Z,16.60
2018-09-21T02:30:41.443Z,16.50
2018-09-21T02:33:09.977Z,16.50
2018-09-21T02:35:38.549Z,16.50
2018-09-21T02:38:07.121Z,16.40
2018-09-21T02:40:41.137Z,16.40
2018-09-21T02:43:09.770Z,16.40
2018-09-21T02:45:38.321Z,16.40
2018-09-21T02:48:07.234Z,16.40
2018-09-21T02:50:35.813Z,16.30
2018-09-21T02:53:04.408Z,16.30
2018-09-21T02:55:32.972Z,16.40
2018-09-21T02:58:02.421Z,16.30
2018-09-21T03:00:31.166Z,16.30
2018-09-21T03:02:59.704Z,16.30
2018-09-21T03:05:28.291Z,16.30
2018-09-21T03:07:56.859Z,16.30
2018-09-21T03:10:25.495Z,16.30
2018-09-21T03:12:54.187Z,16.30
2018-09-21T03:15:22.788Z,16.30
2018-09-21T03:17:51.374Z,16.30
2018-09-21T03:20:19.924Z,16.30
2018-09-21T03:22:48.503Z,16.30
2018-09-21T03:25:17.059Z,16.40
2018-09-21T03:27:45.733Z,16.40
2018-09-21T03:30:20.651Z,16.40
2018-09-21T03:32:49.311Z,16.40
2018-09-21T03:35:17.979Z,16.40
2018-09-21T03:37:46.525Z,16.40
2018-09-21T03:40:15.103Z,16.40
2018-09-21T03:42:43.690Z,16.50
2018-09-21T03:45:12.262Z,16.50
2018-09-21T03:47:40.784Z,16.50
2018-09-21T03:50:09.583Z,16.50
2018-09-21T03:52:38.270Z,16.50
2018-09-21T03:55:07.253Z,16.60
2018-09-21T03:57:35.793Z,16.50
2018-09-21T04:00:05.354Z,16.50
2018-09-21T04:02:33.906Z,16.50
2018-09-21T04:05:02.558Z,16.50
2018-09-21T04:07:31.149Z,16.50
2018-09-21T04:09:59.686Z,16.50
2018-09-21T04:12:28.287Z,16.50
2018-09-21T04:14:56.833Z,16.50
2018-09-21T04:17:25.449Z,16.50
2018-09-21T04:19:54.052Z,16.50
2018-09-21T04:22:22.604Z,16.50
2018-09-21T04:24:51.148Z,16.50
2018-09-21T04:27:19.702Z,16.50
2018-09-21T04:29:48.514Z,16.50
2018-09-21T04:32:17.065Z,16.50
2018-09-21T04:34:45.617Z,16.50
2018-09-21T04:37:14.175Z,16.40
2018-09-21T04:39:42.742Z,16.50
2018-09-21T04:42:11.282Z,16.50
2018-09-21T04:44:39.852Z,16.50
2018-09-21T04:47:08.422Z,16.50
2018-09-21T04:49:36.980Z,16.50
2018-09-21T04:52:06.469Z,16.60
2018-09-21T04:54:35.037Z,16.60
2018-09-21T04:57:03.602Z,16.70
2018-09-21T04:59:32.410Z,16.70
2018-09-21T05:02:01.034Z,16.90
2018-09-21T05:04:29.792Z,16.90
2018-09-21T05:06:58.311Z,16.90
2018-09-21T05:09:26.962Z,17.10
2018-09-21T05:11:55.543Z,17.10
2018-09-21T05:14:24.136Z,17.20
2018-09-21T05:16:52.725Z,17.20
2018-09-21T05:19:21.297Z,17.30
2018-09-21T05:21:49.844Z,17.40
2018-09-21T05:24:18.378Z,17.40
2018-09-21T05:26:46.956Z,17.50
2018-09-21T05:29:15.492Z,17.60
2018-09-21T05:31:44.204Z,17.80
2018-09-21T05:34:12.786Z,17.90
2018-09-21T05:36:41.606Z,18.10
2018-09-21T05:39:12.652Z,18.20
2018-09-21T05:41:41.239Z,18.40
2018-09-21T05:44:10.907Z,18.40
2018-09-21T05:46:40.017Z,18.50
2018-09-21T05:49:08.796Z,18.60
2018-09-21T05:51:37.799Z,18.70
2018-09-21T05:54:07.069Z,18.80
2018-09-21T05:56:35.997Z,18.90
2018-09-21T05:59:04.532Z,18.90
2018-09-21T06:01:33.084Z,19.00
2018-09-21T06:04:01.736Z,19.10
2018-09-21T06:06:30.299Z,19.20
2018-09-21T06:08:58.880Z,19.30
2018-09-21T06:11:27.479Z,19.30
2018-09-21T06:13:56.063Z,19.40
2018-09-21T06:16:24.609Z,19.40
2018-09-21T06:18:53.152Z,19.50
2018-09-21T06:21:21.702Z,19.50
2018-09-21T06:23:50.244Z,19.50
2018-09-21T06:26:18.832Z,19.50
2018-09-21T06:28:47.419Z,19.50
2018-09-21T06:31:15.977Z,19.60
2018-09-21T06:33:44.599Z,19.70
2018-09-21T06:36:13.359Z,19.70
2018-09-21T06:38:42.046Z,19.70
2018-09-21T06:41:10.701Z,19.80
2018-09-21T06:43:39.257Z,19.80
2018-09-21T06:46:08.328Z,19.80
2018-09-21T06:48:43.219Z,19.90
2018-09-21T06:51:11.909Z,19.90
2018-09-21T06:53:40.508Z,20.00
2018-09-21T06:56:09.079Z,20.10
2018-09-21T06:58:37.656Z,20.10
2018-09-21T07:01:06.487Z,20.20
2018-09-21T07:03:35.093Z,20.20
2018-09-21T07:06:03.799Z,20.20
2018-09-21T07:08:32.376Z,20.20
2018-09-21T07:11:00.928Z,20.20
2018-09-21T07:13:29.497Z,20.30
2018-09-21T07:15:58.219Z,20.40
2018-09-21T07:18:26.748Z,20.50
2018-09-21T07:20:55.313Z,20.50
2018-09-21T07:23:23.863Z,20.70
2018-09-21T07:25:52.459Z,20.70
2018-09-21T07:28:21.065Z,20.80
2018-09-21T07:30:49.685Z,20.80
2018-09-21T07:33:18.201Z,20.80
2018-09-21T07:35:47.378Z,20.90
2018-09-21T07:38:22.521Z,20.90
2018-09-21T07:40:51.347Z,20.90
2018-09-21T07:43:19.917Z,20.90
2018-09-21T07:45:48.737Z,20.90
2018-09-21T07:48:17.612Z,21.00
2018-09-21T07:50:46.209Z,21.00
2018-09-21T07:53:14.762Z,21.00
2018-09-21T07:55:43.317Z,20.90
2018-09-21T07:58:11.887Z,20.90
2018-09-21T08:00:40.441Z,20.90
2018-09-21T08:03:09.165Z,20.90
2018-09-21T08:05:37.758Z,20.90
2018-09-21T08:08:07.658Z,20.80
2018-09-21T08:10:36.281Z,20.80
2018-09-21T08:13:04.863Z,20.80
2018-09-21T08:15:33.432Z,20.80
2018-09-21T08:18:02.020Z,20.80
2018-09-21T08:20:30.559Z,20.70
2018-09-21T08:22:59.165Z,20.70
2018-09-21T08:25:27.735Z,20.80
2018-09-21T08:27:56.348Z,20.90
2018-09-21T08:30:24.996Z,21.00
2018-09-21T08:32:53.546Z,21.20
2018-09-21T08:35:22.170Z,21.40
2018-09-21T08:37:50.861Z,21.50
2018-09-21T08:40:19.460Z,21.60
2018-09-21T08:42:48.012Z,21.70
2018-09-21T08:45:16.580Z,21.70
2018-09-21T08:47:45.127Z,21.80
2018-09-21T08:50:13.811Z,21.80
2018-09-21T08:52:42.401Z,21.90
2018-09-21T08:55:10.989Z,21.90
2018-09-21T08:57:39.769Z,22.00
2018-09-21T09:00:09.170Z,21.90
2018-09-21T09:02:37.738Z,21.90
2018-09-21T09:05:06.651Z,21.90
2018-09-21T09:07:35.199Z,21.90
2018-09-21T09:10:03.956Z,21.90
2018-09-21T09:12:32.624Z,22.10
2018-09-21T09:15:01.170Z,22.20
2018-09-21T09:17:29.836Z,22.30
2018-09-21T09:19:58.489Z,22.40
2018-09-21T09:22:27.044Z,22.40
2018-09-21T09:24:55.657Z,22.50
2018-09-21T09:27:24.261Z,22.50
2018-09-21T09:29:52.828Z,22.50
2018-09-21T09:32:21.407Z,22.40
2018-09-21T09:34:49.998Z,22.50
2018-09-21T09:37:18.581Z,22.60
2018-09-21T09:39:47.292Z,22.80
2018-09-21T09:42:16.212Z,22.90
2018-09-21T09:44:50.484Z,22.90
2018-09-21T09:47:19.050Z,23.00
2018-09-21T09:49:47.668Z,23.10
2018-09-21T09:52:16.224Z,23.20
2018-09-21T09:54:44.821Z,23.20
2018-09-21T09:57:13.456Z,23.30
2018-09-21T09:59:42.001Z,23.30
2018-09-21T10:02:10.795Z,23.40
2018-09-21T10:04:39.439Z,23.50
2018-09-21T10:07:08.065Z,23.50
2018-09-21T10:09:36.733Z,23.50
2018-09-21T10:12:05.568Z,23.60
2018-09-21T10:14:34.164Z,23.60
2018-09-21T10:17:02.760Z,23.70
2018-09-21T10:19:31.363Z,23.70
2018-09-21T10:22:00.056Z,23.90
2018-09-21T10:24:28.630Z,24.00
2018-09-21T10:26:57.531Z,24.00
2018-09-21T10:29:26.075Z,24.10
2018-09-21T10:31:54.630Z,24.10
2018-09-21T10:34:23.236Z,24.10
2018-09-21T10:36:52.192Z,24.10
2018-09-21T10:39:20.935Z,24.00
2018-09-21T10:41:49.547Z,24.10
2018-09-21T10:44:18.227Z,24.00
2018-09-21T10:46:46.834Z,23.90
2018-09-21T10:49:15.447Z,23.90
2018-09-21T10:51:44.188Z,24.00
2018-09-21T10:54:12.756Z,24.00
2018-09-21T10:56:41.388Z,24.10
2018-09-21T10:59:09.948Z,24.10
2018-09-21T11:01:38.525Z,24.10
2018-09-21T11:04:07.185Z,24.10
2018-09-21T11:06:35.789Z,24.10
2018-09-21T11:09:07.151Z,24.00
2018-09-21T11:11:35.836Z,24.00
2018-09-21T11:14:04.457Z,23.90
2018-09-21T11:16:33.198Z,23.90
2018-09-21T11:19:01.792Z,23.90
2018-09-21T11:21:30.697Z,24.00
2018-09-21T11:23:59.258Z,24.10
2018-09-21T11:26:27.808Z,24.20
2018-09-21T11:28:56.375Z,24.20
2018-09-21T11:31:24.967Z,24.10
2018-09-21T11:33:53.517Z,24.10
2018-09-21T11:36:22.146Z,24.10
2018-09-21T11:38:50.898Z,24.20
2018-09-21T11:41:19.463Z,24.10
2018-09-21T11:43:48.093Z,24.10
2018-09-21T11:46:16.935Z,24.10
2018-09-21T11:48:45.549Z,24.10
2018-09-21T11:51:14.207Z,24.10
2018-09-21T11:53:42.819Z,24.00
2018-09-21T11:56:12.015Z,23.90
2018-09-21T11:58:40.601Z,23.90
2018-09-21T12:01:09.196Z,23.90
2018-09-21T12:03:37.824Z,23.90
2018-09-21T12:06:07.346Z,23.80
2018-09-21T12:08:37.724Z,23.80
2018-09-21T12:11:06.612Z,23.80
2018-09-21T12:13:35.781Z,23.80
2018-09-21T12:16:04.819Z,23.70
2018-09-21T12:18:33.342Z,23.60
2018-09-21T12:21:01.901Z,23.60
2018-09-21T12:23:30.469Z,23.60
2018-09-21T12:25:59.225Z,23.60
2018-09-21T12:28:27.802Z,23.70
2018-09-21T12:30:56.553Z,23.70
2018-09-21T12:33:25.169Z,23.60
2018-09-21T12:35:53.851Z,23.50
2018-09-21T12:38:22.381Z,23.50
2018-09-21T12:40:50.934Z,23.40
2018-09-21T12:43:19.531Z,23.20
2018-09-21T12:45:48.582Z,22.80
2018-09-21T12:48:17.303Z,22.50
2018-09-21T12:50:45.988Z,22.20
2018-09-21T12:53:14.549Z,21.70
2018-09-21T12:55:43.137Z,21.30
2018-09-21T12:58:12.919Z,21.00
2018-09-21T13:00:46.741Z,20.80
2018-09-21T13:03:15.377Z,20.40
2018-09-21T13:05:44.005Z,20.30
2018-09-21T13:08:13.344Z,20.00
2018-09-21T13:10:41.954Z,19.60
2018-09-21T13:13:10.556Z,19.30
2018-09-21T13:15:39.177Z,19.20
2018-09-21T13:18:07.883Z,19.10
2018-09-21T13:20:36.571Z,18.80
2018-09-21T13:23:05.390Z,18.50
2018-09-21T13:25:33.960Z,18.40
2018-09-21T13:28:02.544Z,18.30
2018-09-21T13:30:31.096Z,17.90
2018-09-21T13:32:59.771Z,17.40
2018-09-21T13:35:28.350Z,16.90
2018-09-21T13:37:56.927Z,16.40
2018-09-21T13:40:25.516Z,15.70
2018-09-21T13:42:54.121Z,15.30
2018-09-21T13:45:22.914Z,15.10
2018-09-21T13:47:52.579Z,15.00
2018-09-21T13:50:21.646Z,14.80
2018-09-21T13:52:50.200Z,14.80
2018-09-21T13:55:18.764Z,14.70
2018-09-21T13:57:47.701Z,14.60
2018-09-21T14:00:16.413Z,14.60
2018-09-21T14:02:44.987Z,14.60
2018-09-21T14:05:13.570Z,14.60
2018-09-21T14:07:42.554Z,14.50
2018-09-21T14:10:11.570Z,14.40
2018-09-21T14:12:40.830Z,14.40
2018-09-21T14:15:09.491Z,14.30
2018-09-21T14:17:38.084Z,14.20
2018-09-21T14:20:07.044Z,14.10
2018-09-21T14:22:35.608Z,14.00
2018-09-21T14:25:04.248Z,14.00
2018-09-21T14:27:32.844Z,13.90
2018-09-21T14:30:01.427Z,13.80
2018-09-21T14:32:30.005Z,13.50
2018-09-21T14:34:58.611Z,13.30
2018-09-21T14:37:27.190Z,13.20
2018-09-21T14:39:55.829Z,13.00
2018-09-21T14:42:24.408Z,12.90
2018-09-21T14:44:52.972Z,12.90
2018-09-21T14:47:21.586Z,12.90
2018-09-21T14:49:50.170Z,12.90
2018-09-21T14:52:18.743Z,12.80
2018-09-21T14:54:47.290Z,12.90
2018-09-21T14:57:15.877Z,12.90
2018-09-21T14:59:44.466Z,12.90
2018-09-21T15:02:13.682Z,12.90
2018-09-21T15:04:42.296Z,12.90
2018-09-21T15:07:10.924Z,13.00
2018-09-21T15:09:39.534Z,13.00
2018-09-21T15:12:08.172Z,13.10
2018-09-21T15:14:36.745Z,13.10
2018-09-21T15:17:05.371Z,13.20
2018-09-21T15:19:33.970Z,13.20
2018-09-21T15:22:02.615Z,13.30
2018-09-21T15:24:31.216Z,13.30
2018-09-21T15:26:59.795Z,13.40
2018-09-21T15:29:28.380Z,13.40
2018-09-21T15:31:57.108Z,13.40
2018-09-21T15:34:25.652Z,13.40
2018-09-21T15:36:54.243Z,13.40
2018-09-21T15:39:22.837Z,13.40
2018-09-21T15:41:51.449Z,13.40
2018-09-21T15:44:20.004Z,13.40
2018-09-21T15:46:48.620Z,13.50
2018-09-21T15:49:17.232Z,13.40
2018-09-21T15:51:45.857Z,13.50
2018-09-21T15:54:14.928Z,13.50
2018-09-21T15:56:43.489Z,13.50
2018-09-21T15:59:12.061Z,13.50
2018-09-21T16:01:40.710Z,13.50
2018-09-21T16:04:09.356Z,13.50
2018-09-21T16:06:37.956Z,13.40
2018-09-21T16:09:07.933Z,13.40
2018-09-21T16:11:37.448Z,13.40
2018-09-21T16:14:06.441Z,13.40
2018-09-21T16:16:35.548Z,13.50
2018-09-21T16:19:04.180Z,13.50
2018-09-21T16:21:32.765Z,13.50
2018-09-21T16:24:01.337Z,13.50
2018-09-21T16:26:30.095Z,13.50
2018-09-21T16:28:58.693Z,13.50
2018-09-21T16:31:27.327Z,13.40
2018-09-21T16:33:55.900Z,13.40
2018-09-21T16:36:24.579Z,13.40
2018-09-21T16:38:53.157Z,13.40
2018-09-21T16:41:21.833Z,13.40
2018-09-21T16:43:50.317Z,13.40
2018-09-21T16:46:19.024Z,13.30
2018-09-21T16:48:47.666Z,13.30
2018-09-21T16:51:16.257Z,13.20
2018-09-21T16:53:44.872Z,13.30
2018-09-21T16:56:13.501Z,13.30
2018-09-21T16:58:42.115Z,13.20
2018-09-21T17:01:10.671Z,13.20
2018-09-21T17:03:39.237Z,13.30
2018-09-21T17:06:07.810Z,13.20
2018-09-21T17:08:36.358Z,13.20
2018-09-21T17:11:05.068Z,13.20
2018-09-21T17:13:33.666Z,13.30
2018-09-21T17:16:02.244Z,13.20
2018-09-21T17:18:30.814Z,13.20
2018-09-21T17:20:59.442Z,13.30
2018-09-21T17:23:28.827Z,13.30
2018-09-21T17:25:57.553Z,13.30
2018-09-21T17:28:26.209Z,13.30
2018-09-21T17:30:54.765Z,13.30
2018-09-21T17:33:23.328Z,13.30
2018-09-21T17:35:51.901Z,13.20
2018-09-21T17:38:20.466Z,13.20
2018-09-21T17:40:49.329Z,13.20
2018-09-21T17:43:17.931Z,13.10
2018-09-21T17:45:46.489Z,13.10
2018-09-21T17:48:15.260Z,13.10
2018-09-21T17:50:43.963Z,13.20
2018-09-21T17:53:12.594Z,13.20
2018-09-21T17:55:41.173Z,13.10
2018-09-21T17:58:09.787Z,13.10
2018-09-21T18:00:38.373Z,13.10
2018-09-21T18:03:06.955Z,13.10
2018-09-21T18:05:35.605Z,13.10
2018-09-21T18:08:04.234Z,13.10
2018-09-21T18:10:32.812Z,13.00
2018-09-21T18:13:01.394Z,13.10
2018-09-21T18:15:29.965Z,13.10
2018-09-21T18:17:58.622Z,13.10
2018-09-21T18:20:27.218Z,13.10
2018-09-21T18:22:55.848Z,13.10
2018-09-21T18:25:24.427Z,13.00
2018-09-21T18:27:52.991Z,12.90
2018-09-21T18:30:21.551Z,12.80
2018-09-21T18:32:50.104Z,12.80
2018-09-21T18:35:18.683Z,12.80
2018-09-21T18:37:47.265Z,12.80
2018-09-21T18:40:17.070Z,12.80
2018-09-21T18:42:45.664Z,12.80
2018-09-21T18:45:14.275Z,12.80
2018-09-21T18:47:42.905Z,12.90
2018-09-21T18:50:11.548Z,12.90
2018-09-21T18:52:40.168Z,12.80
2018-09-21T18:55:08.814Z,12.80
2018-09-21T18:57:37.423Z,12.80
2018-09-21T19:00:06.655Z,12.70
2018-09-21T19:02:35.230Z,12.70
2018-09-21T19:05:03.880Z,12.60
2018-09-21T19:07:32.433Z,12.60
2018-09-21T19:10:01.252Z,12.60
2018-09-21T19:12:29.813Z,12.50
2018-09-21T19:14:58.431Z,12.50
2018-09-21T19:17:26.996Z,12.40
2018-09-21T19:19:55.596Z,12.30
2018-09-21T19:22:24.206Z,12.40
2018-09-21T19:24:52.788Z,12.30
2018-09-21T19:27:21.452Z,12.30
2018-09-21T19:29:50.208Z,12.30
2018-09-21T19:32:19.440Z,12.30
2018-09-21T19:34:48.065Z,12.30
2018-09-21T19:37:16.650Z,12.30
2018-09-21T19:39:45.192Z,12.40
2018-09-21T19:42:13.787Z,12.40
2018-09-21T19:44:42.522Z,12.40
2018-09-21T19:47:11.231Z,12.40
2018-09-21T19:49:39.834Z,12.40
2018-09-21T19:52:08.479Z,12.40
2018-09-21T19:54:37.185Z,12.40
2018-09-21T19:57:05.800Z,12.40
2018-09-21T19:59:34.388Z,12.50
2018-09-21T20:02:02.965Z,12.50
2018-09-21T20:04:31.519Z,12.50
2018-09-21T20:07:00.095Z,12.50
2018-09-21T20:09:28.632Z,12.50
2018-09-21T20:11:57.312Z,12.50
2018-09-21T20:14:25.893Z,12.60
2018-09-21T20:16:54.491Z,12.60
2018-09-21T20:19:23.075Z,12.60
2018-09-21T20:21:51.716Z,12.60
2018-09-21T20:24:20.785Z,12.50
2018-09-21T20:26:49.381Z,12.50
2018-09-21T20:29:17.976Z,12.50
2018-09-21T20:31:51.834Z,12.50
2018-09-21T20:34:20.828Z,12.50
2018-09-21T20:36:49.428Z,12.50
2018-09-21T20:39:18.232Z,12.50
2018-09-21T20:41:46.820Z,12.50
2018-09-21T20:44:15.384Z,12.50
2018-09-21T20:46:43.980Z,12.50
2018-09-21T20:49:15.607Z,12.50
2018-09-21T20:51:46.067Z,12.40
2018-09-21T20:54:14.719Z,12.30
2018-09-21T20:56:43.361Z,12.40
2018-09-21T20:59:12.757Z,12.40
2018-09-21T21:01:42.270Z,12.40
2018-09-21T21:04:10.875Z,12.40
2018-09-21T21:06:39.565Z,12.50
2018-09-21T21:09:09.848Z,12.30
2018-09-21T21:11:38.481Z,12.40
2018-09-21T21:14:07.144Z,12.30
2018-09-21T21:16:35.734Z,12.20
2018-09-21T21:19:04.316Z,12.30
2018-09-21T21:21:32.976Z,12.30
2018-09-21T21:24:01.645Z,12.40
2018-09-21T21:26:30.255Z,12.40
2018-09-21T21:28:58.793Z,12.30
2018-09-21T21:31:27.340Z,12.50
2018-09-21T21:33:55.936Z,12.50
2018-09-21T21:36:24.535Z,12.50
2018-09-21T21:38:53.106Z,12.50
2018-09-21T21:41:21.659Z,12.50
2018-09-21T21:43:50.269Z,12.50
2018-09-21T21:46:20.406Z,12.60
2018-09-21T21:48:48.997Z,12.60
2018-09-21T21:51:17.542Z,12.60
2018-09-21T21:53:46.120Z,12.50
2018-09-21T21:56:14.680Z,12.60
2018-09-21T21:58:43.333Z,12.50
2018-09-21T22:01:17.256Z,12.50
2018-09-21T22:03:45.892Z,12.50
2018-09-21T22:06:14.485Z,12.50
2018-09-21T22:08:43.027Z,12.40
2018-09-21T22:11:16.983Z,12.40
2018-09-21T22:13:50.738Z,12.40
2018-09-21T22:16:20.743Z,12.40
2018-09-21T22:18:49.410Z,12.30
2018-09-21T22:21:18.024Z,12.30
2018-09-21T22:23:46.791Z,12.40
2018-09-21T22:26:15.376Z,12.30
2018-09-21T22:28:43.967Z,12.30
2018-09-21T22:31:12.591Z,12.30
2018-09-21T22:33:41.139Z,12.40
2018-09-21T22:36:09.761Z,12.30
2018-09-21T22:38:38.353Z,12.30
2018-09-21T22:41:06.967Z,12.40
2018-09-21T22:43:35.563Z,12.40
2018-09-21T22:46:04.207Z,12.40
2018-09-21T22:48:32.876Z,12.40
2018-09-21T22:51:01.440Z,12.40
2018-09-21T22:53:30.011Z,12.40
2018-09-21T22:55:58.589Z,12.30
2018-09-21T22:58:27.158Z,12.40
2018-09-21T23:00:55.778Z,12.30
2018-09-21T23:03:24.318Z,12.30
2018-09-21T23:05:52.824Z,12.30
2018-09-21T23:08:21.714Z,12.30
2018-09-21T23:10:50.269Z,12.30
2018-09-21T23:13:18.836Z,12.30
2018-09-21T23:15:47.430Z,12.30
2018-09-21T23:18:15.995Z,12.20
2018-09-21T23:20:44.571Z,12.10
2018-09-21T23:23:13.170Z,12.10
2018-09-21T23:25:41.756Z,12.00
2018-09-21T23:28:10.795Z,12.00
2018-09-21T23:30:39.399Z,12.00
2018-09-21T23:33:08.036Z,12.00
2018-09-21T23:35:36.652Z,12.00
2018-09-21T23:38:05.273Z,11.90
2018-09-21T23:40:33.856Z,11.90
2018-09-21T23:43:02.484Z,11.80
2018-09-21T23:45:31.092Z,11.80
2018-09-21T23:47:59.690Z,11.70
2018-09-21T23:50:28.292Z,11.70
2018-09-21T23:52:56.868Z,11.70
2018-09-21T23:55:25.453Z,11.70
2018-09-21T23:57:54.097Z,11.60
